Time;durP1;ratioP1;P1;durP2;ratioP2;P2;SDS_P1;SDS_P2;PMS_P1;PMS_P2;Temp;Humidity;BMP_temperature;BMP_pressure;BME280_temperature;BME280_humidity;BME280_pressure;Samples;Min_cycle;Max_cycle;Signal;HPM_P1;HPM_P2
2021/11/18 00:01:52;;;;;;;3.15;1.20;;;17.80;67.00;;;;;;10578469;28;20406;-51
2021/11/18 00:06:53;;;;;;;3.30;1.33;;;17.90;66.80;;;;;;10560558;28;20023;-49
2021/11/18 00:11:55;;;;;;;4.38;2.05;;;17.80;66.90;;;;;;10578745;28;20024;-50
2021/11/18 00:16:56;;;;;;;2.45;1.42;;;17.80;67.10;;;;;;10578533;28;20035;-49
2021/11/18 00:21:56;;;;;;;2.95;1.48;;;17.70;67.10;;;;;;10578938;28;20028;-52
2021/11/18 00:26:57;;;;;;;2.45;1.50;;;17.80;66.90;;;;;;10578220;28;20107;-51
2021/11/18 00:31:58;;;;;;;3.05;1.30;;;17.90;66.70;;;;;;10571053;28;20066;-49
2021/11/18 00:36:59;;;;;;;2.92;1.50;;;17.90;66.70;;;;;;10621422;28;20461;-48
2021/11/18 00:41:59;;;;;;;2.55;1.10;;;17.80;66.80;;;;;;10588051;28;20027;-52
2021/11/18 00:47:00;;;;;;;1.67;1.05;;;17.80;66.70;;;;;;10588463;28;20027;-48
2021/11/18 00:52:01;;;;;;;2.17;0.93;;;17.80;66.70;;;;;;10574444;28;20038;-49
2021/11/18 00:57:02;;;;;;;1.45;1.00;;;17.80;66.80;;;;;;10574333;28;20153;-51
2021/11/18 01:02:03;;;;;;;3.10;1.45;;;17.90;66.50;;;;;;10601798;28;20030;-52
2021/11/18 01:07:04;;;;;;;3.00;1.20;;;17.90;66.50;;;;;;10588058;28;20030;-47
2021/11/18 01:12:09;;;;;;;2.67;1.00;;;17.80;66.50;;;;;;10619590;27;20031;-49
2021/11/18 01:17:10;;;;;;;2.35;1.17;;;17.80;66.70;;;;;;10596073;27;20042;-49
2021/11/18 01:22:11;;;;;;;2.75;1.40;;;17.80;66.60;;;;;;10614657;27;20026;-50
2021/11/18 01:27:12;;;;;;;2.58;1.25;;;17.80;66.60;;;;;;10585510;28;20040;-52
2021/11/18 01:32:13;;;;;;;2.58;1.05;;;17.80;66.50;;;;;;10585041;28;20046;-49
2021/11/18 01:37:14;;;;;;;2.72;1.27;;;17.90;66.10;;;;;;10580314;27;20028;-50
2021/11/18 01:42:15;;;;;;;2.72;1.13;;;17.90;66.10;;;;;;10584352;28;20028;-49
2021/11/18 01:47:16;;;;;;;1.77;0.90;;;17.90;66.20;;;;;;10584204;28;20448;-49
2021/11/18 01:52:23;;;;;;;2.63;1.15;;;17.90;66.30;;;;;;10582055;27;20040;-48
2021/11/18 01:57:27;;;;;;;3.83;1.20;;;17.90;66.10;;;;;;10626403;27;20027;-51
2021/11/18 02:02:30;;;;;;;1.73;0.93;;;17.90;66.30;;;;;;10625987;27;20102;-49
2021/11/18 02:07:30;;;;;;;1.25;1.05;;;17.90;66.20;;;;;;10626020;27;20019;-51
2021/11/18 02:12:32;;;;;;;2.67;1.25;;;17.90;66.10;;;;;;10593355;27;20126;-48
2021/11/18 02:17:33;;;;;;;2.92;1.02;;;17.80;66.20;;;;;;10625585;27;20040;-50
2021/11/18 02:22:34;;;;;;;2.33;1.55;;;17.90;66.10;;;;;;10590676;27;20112;-49
2021/11/18 02:27:35;;;;;;;2.70;1.27;;;17.90;66.10;;;;;;10577729;27;20091;-48
2021/11/18 02:32:40;;;;;;;2.47;1.50;;;17.80;66.20;;;;;;10582218;28;20062;-51
2021/11/18 02:37:42;;;;;;;2.72;1.10;;;17.90;66.00;;;;;;10591749;27;20024;-49
2021/11/18 02:42:44;;;;;;;2.22;1.20;;;17.90;66.10;;;;;;10577763;27;20035;-50
2021/11/18 02:47:45;;;;;;;2.78;1.27;;;17.90;66.20;;;;;;10577351;27;20015;-47
2021/11/18 02:52:47;;;;;;;1.98;1.20;;;17.90;66.00;;;;;;10613603;27;20035;-51
2021/11/18 02:57:49;;;;;;;2.28;1.38;;;17.90;66.00;;;;;;10623946;27;20112;-49
2021/11/18 03:02:50;;;;;;;2.65;1.02;;;17.90;66.10;;;;;;10591435;27;20111;-49
2021/11/18 03:07:52;;;;;;;1.88;1.00;;;17.90;66.00;;;;;;10591847;27;20110;-49
2021/11/18 03:12:52;;;;;;;2.65;1.40;;;17.80;66.10;;;;;;10580979;27;20497;-52
2021/11/18 03:17:53;;;;;;;1.90;1.20;;;17.90;66.00;;;;;;10580457;28;20023;-50
2021/11/18 03:22:54;;;;;;;2.53;1.10;;;17.90;65.90;;;;;;10580361;28;20437;-48
2021/11/18 03:27:56;;;;;;;1.33;0.80;;;17.90;65.80;;;;;;10561881;28;20490;-49
2021/11/18 03:33:00;;;;;;;2.03;1.00;;;17.90;65.90;;;;;;10550142;28;20040;-51
2021/11/18 03:38:01;;;;;;;1.88;1.00;;;17.90;65.90;;;;;;10549121;28;20022;-53
2021/11/18 03:43:02;;;;;;;1.85;1.00;;;17.90;65.80;;;;;;10537494;28;20020;-49
2021/11/18 03:48:04;;;;;;;1.98;1.00;;;17.90;65.70;;;;;;10549780;28;20399;-50
2021/11/18 03:53:05;;;;;;;1.75;0.98;;;17.90;65.70;;;;;;10570009;28;20101;-51
2021/11/18 03:58:06;;;;;;;1.70;1.10;;;17.90;65.80;;;;;;10563948;28;20073;-50
2021/11/18 04:03:11;;;;;;;2.35;1.08;;;17.90;65.80;;;;;;10579048;28;20023;-49
2021/11/18 04:08:12;;;;;;;1.55;0.88;;;17.90;65.80;;;;;;10578745;28;20111;-49
2021/11/18 04:13:13;;;;;;;1.73;1.20;;;17.80;65.90;;;;;;10533130;28;20118;-48
2021/11/18 04:18:14;;;;;;;2.13;1.10;;;17.90;65.80;;;;;;10549865;28;20103;-49
2021/11/18 04:23:21;;;;;;;1.60;0.88;;;17.90;65.80;;;;;;10556429;28;20106;-52
2021/11/18 04:28:23;;;;;;;1.98;0.70;;;17.80;65.90;;;;;;10548519;28;20032;-52
2021/11/18 04:33:25;;;;;;;2.72;1.45;;;17.90;65.70;;;;;;10571464;28;20094;-50
2021/11/18 04:38:27;;;;;;;3.10;1.35;;;17.90;65.70;;;;;;10573361;28;20190;-50
2021/11/18 04:43:29;;;;;;;1.75;0.88;;;17.90;65.80;;;;;;10577751;28;20020;-52
2021/11/18 04:48:29;;;;;;;1.67;0.82;;;17.90;65.70;;;;;;10577663;28;20130;-49
2021/11/18 04:53:31;;;;;;;2.17;0.95;;;17.90;65.50;;;;;;10624543;27;20053;-52
2021/11/18 04:58:32;;;;;;;1.58;0.70;;;17.90;65.50;;;;;;10628620;27;20019;-49
2021/11/18 05:03:34;;;;;;;2.45;1.05;;;17.90;65.50;;;;;;10628798;27;20279;-51
2021/11/18 05:08:35;;;;;;;2.55;0.93;;;17.80;65.70;;;;;;10582478;27;20075;-51
2021/11/18 05:13:37;;;;;;;2.28;1.00;;;17.90;65.60;;;;;;10628147;27;20046;-52
2021/11/18 05:18:39;;;;;;;1.65;0.90;;;17.90;65.40;;;;;;10628033;27;20390;-49
2021/11/18 05:23:41;;;;;;;1.67;0.82;;;17.90;65.50;;;;;;10595590;27;20078;-50
2021/11/18 05:28:43;;;;;;;2.08;1.10;;;17.90;65.60;;;;;;10609473;27;20049;-49
2021/11/18 05:33:46;;;;;;;2.20;0.90;;;17.90;65.40;;;;;;10594863;27;20040;-51
2021/11/18 05:38:47;;;;;;;2.38;0.82;;;17.90;65.40;;;;;;10595363;27;20042;-48
2021/11/18 05:43:49;;;;;;;1.77;0.95;;;18.00;65.10;;;;;;10595147;27;20023;-50
2021/11/18 05:48:50;;;;;;;2.88;1.02;;;18.20;64.80;;;;;;10565068;27;20057;-53
2021/11/18 05:53:52;;;;;;;1.55;0.73;;;18.20;64.30;;;;;;10587860;27;20571;-49
2021/11/18 05:58:53;;;;;;;4.80;1.35;;;18.30;64.20;;;;;;10587054;27;20019;-49
2021/11/18 06:03:54;;;;;;;4.32;1.15;;;18.40;64.70;;;;;;10577029;27;20033;-47
2021/11/18 06:09:02;;;;;;;3.15;1.23;;;18.30;65.70;;;;;;10590388;27;20444;-46
2021/11/18 06:14:05;;;;;;;7.07;1.67;;;18.40;65.80;;;;;;10579599;27;20432;-52
2021/11/18 06:19:06;;;;;;;2.70;1.25;;;18.50;65.50;;;;;;10578949;27;20024;-47
2021/11/18 06:24:08;;;;;;;5.80;1.33;;;18.60;64.80;;;;;;10582848;28;20028;-50
2021/11/18 06:29:09;;;;;;;2.90;1.10;;;18.80;64.70;;;;;;10578144;27;20436;-47
2021/11/18 06:34:10;;;;;;;3.03;1.35;;;18.90;64.70;;;;;;10578399;27;20039;-48
2021/11/18 06:39:13;;;;;;;3.45;1.20;;;18.80;64.80;;;;;;10582672;28;20265;-49
2021/11/18 06:44:16;;;;;;;5.82;1.38;;;18.90;64.40;;;;;;10591885;27;20073;-51
2021/11/18 06:49:16;;;;;;;10.00;2.65;;;18.90;64.20;;;;;;10584075;27;20028;-51
2021/11/18 06:54:19;;;;;;;6.63;1.33;;;18.90;64.30;;;;;;10591956;27;20031;-54
2021/11/18 06:59:19;;;;;;;3.70;1.15;;;19.00;63.80;;;;;;10592259;27;20027;-51
2021/11/18 07:04:20;;;;;;;15.00;2.00;;;19.00;63.50;;;;;;10604298;27;20031;-53
2021/11/18 07:09:21;;;;;;;4.55;1.42;;;19.10;63.30;;;;;;10587839;27;20049;-52
2021/11/18 07:14:22;;;;;;;3.63;1.45;;;19.00;63.40;;;;;;10622293;27;20080;-48
2021/11/18 07:19:23;;;;;;;4.25;1.63;;;18.90;63.60;;;;;;10589347;27;20431;-51
2021/11/18 07:24:24;;;;;;;3.22;1.50;;;18.90;63.70;;;;;;10580211;28;20031;-52
2021/11/18 07:29:25;;;;;;;4.05;1.85;;;18.90;64.20;;;;;;10579977;28;20059;-51
2021/11/18 07:34:26;;;;;;;4.82;1.95;;;18.90;63.60;;;;;;10563031;28;20048;-51
2021/11/18 07:39:27;;;;;;;5.07;1.35;;;18.80;63.80;;;;;;10561545;27;20406;-50
2021/11/18 07:44:28;;;;;;;7.40;2.08;;;18.80;63.70;;;;;;10619643;27;20023;-49
2021/11/18 07:49:29;;;;;;;4.40;1.42;;;18.80;63.70;;;;;;10602678;27;20032;-50
2021/11/18 07:54:30;;;;;;;4.53;1.63;;;18.80;63.90;;;;;;10578983;28;20028;-50
2021/11/18 07:59:30;;;;;;;6.03;2.08;;;18.80;63.70;;;;;;10581299;27;20371;-49
2021/11/18 08:04:32;;;;;;;3.95;1.63;;;18.80;63.60;;;;;;10585953;27;20038;-48
2021/11/18 08:09:33;;;;;;;3.40;1.52;;;18.80;63.50;;;;;;10574489;27;20106;-50
2021/11/18 08:14:34;;;;;;;4.72;2.65;;;18.80;63.60;;;;;;10573936;28;20454;-51
2021/11/18 08:19:35;;;;;;;2.95;1.45;;;18.90;63.60;;;;;;10587685;27;20119;-50
2021/11/18 08:24:36;;;;;;;2.95;1.67;;;18.80;63.60;;;;;;10577930;28;20364;-48
2021/11/18 08:29:37;;;;;;;3.28;2.28;;;18.80;63.80;;;;;;10587150;27;20431;-49
2021/11/18 08:34:40;;;;;;;3.90;1.52;;;18.80;63.50;;;;;;10564365;28;20352;-47
2021/11/18 08:39:42;;;;;;;3.85;1.95;;;18.70;63.70;;;;;;10559998;28;20032;-48
2021/11/18 08:44:42;;;;;;;2.70;1.52;;;18.70;64.00;;;;;;10559659;28;20028;-48
2021/11/18 08:49:44;;;;;;;3.67;1.75;;;18.60;64.20;;;;;;10577847;28;20045;-52
2021/11/18 08:54:49;;;;;;;4.00;1.50;;;18.70;64.10;;;;;;10559969;28;20036;-50
2021/11/18 08:59:50;;;;;;;6.22;1.70;;;18.70;63.80;;;;;;10559650;28;20030;-52
2021/11/18 09:04:54;;;;;;;5.05;2.53;;;18.70;63.90;;;;;;10577432;28;20479;-50
2021/11/18 09:09:54;;;;;;;4.75;2.08;;;18.60;64.20;;;;;;10577223;28;20028;-52
2021/11/18 09:14:55;;;;;;;3.95;1.63;;;18.50;64.40;;;;;;10577172;28;20069;-50
2021/11/18 09:19:56;;;;;;;5.93;2.90;;;18.60;64.30;;;;;;10559180;28;20392;-51
2021/11/18 09:25:00;;;;;;;3.78;1.80;;;18.60;64.40;;;;;;10570826;28;20733;-48
2021/11/18 09:30:08;;;;;;;4.57;1.90;;;18.50;64.60;;;;;;10576776;28;20051;-48
2021/11/18 09:35:15;;;;;;;4.13;1.70;;;18.50;64.70;;;;;;10579858;28;20132;-49
2021/11/18 09:40:23;;;;;;;3.40;1.50;;;18.60;64.60;;;;;;10584642;28;20386;-48
2021/11/18 09:45:28;;;;;;;4.25;1.95;;;18.40;64.80;;;;;;10566650;28;20114;-48
2021/11/18 09:50:53;;;;;;;3.15;1.58;;;18.40;65.10;;;;;;10566390;28;20316;-51
2021/11/18 09:56:37;;;;;;;3.35;1.60;;;18.20;65.90;;;;;;10585421;28;20035;-50
2021/11/18 10:02:00;;;;;;;4.55;2.17;;;18.10;66.50;;;;;;10585109;28;20149;-51
2021/11/18 10:07:08;;;;;;;3.10;1.85;;;18.00;66.70;;;;;;10566966;28;20112;-47
2021/11/18 10:12:30;;;;;;;3.40;1.65;;;17.90;66.80;;;;;;10584177;28;20487;-48
2021/11/18 10:17:42;;;;;;;4.00;1.98;;;18.00;66.60;;;;;;10583450;28;20096;-49
2021/11/18 10:22:48;;;;;;;3.63;1.75;;;18.10;66.70;;;;;;10576541;28;20031;-50
2021/11/18 10:27:56;;;;;;;5.68;2.38;;;18.00;66.80;;;;;;10564707;28;20032;-49
2021/11/18 10:33:07;;;;;;;4.78;1.80;;;18.00;66.60;;;;;;10568816;28;20098;-48
2021/11/18 10:38:36;;;;;;;5.50;2.10;;;17.90;66.90;;;;;;10582233;28;20055;-51
2021/11/18 10:43:39;;;;;;;3.78;2.03;;;18.00;67.10;;;;;;10565453;28;20031;-47
2021/11/18 10:49:01;;;;;;;6.30;2.25;;;17.90;67.30;;;;;;10563414;28;20038;-49
2021/11/18 10:54:07;;;;;;;6.30;2.55;;;17.80;67.50;;;;;;10547073;28;20038;-51
2021/11/18 10:59:31;;;;;;;4.10;2.17;;;17.80;67.70;;;;;;10563521;28;20027;-48
2021/11/18 11:04:41;;;;;;;3.30;1.80;;;17.80;67.70;;;;;;10564716;28;20483;-51
2021/11/18 11:09:47;;;;;;;4.65;1.90;;;17.80;67.60;;;;;;10580808;28;20027;-51
2021/11/18 11:14:54;;;;;;;4.60;2.03;;;17.90;67.60;;;;;;10580574;28;20081;-49
2021/11/18 11:20:36;;;;;;;4.68;1.80;;;17.90;67.50;;;;;;10580678;28;20032;-50
2021/11/18 11:26:16;;;;;;;4.30;2.50;;;17.90;67.50;;;;;;10565431;28;20076;-51
2021/11/18 11:32:08;;;;;;;3.60;1.80;;;17.90;67.50;;;;;;10580376;28;20050;-49
2021/11/18 11:37:23;;;;;;;4.28;2.13;;;17.90;67.50;;;;;;10520814;28;20044;-50
2021/11/18 11:42:52;;;;;;;4.47;2.00;;;17.90;67.60;;;;;;10580003;28;20023;-48
2021/11/18 11:48:40;;;;;;;4.85;2.05;;;17.80;67.70;;;;;;10579457;28;20020;-47
2021/11/18 11:54:19;;;;;;;2.38;1.77;;;17.80;67.90;;;;;;10563795;28;20110;-51
2021/11/18 11:59:30;;;;;;;3.97;1.85;;;17.70;68.00;;;;;;10577205;28;20161;-52
2021/11/18 12:04:52;;;;;;;3.85;1.90;;;17.80;68.10;;;;;;10578963;28;20032;-51
2021/11/18 12:10:21;;;;;;;4.00;2.08;;;17.80;68.00;;;;;;10578776;28;20031;-51
2021/11/18 12:15:23;;;;;;;5.15;2.17;;;17.90;73.30;;;;;;10560361;28;20051;-51
2021/11/18 12:20:44;;;;;;;3.03;1.73;;;17.90;70.60;;;;;;10578295;28;20063;-49
2021/11/18 12:26:15;;;;;;;4.97;2.10;;;17.80;69.80;;;;;;10554103;28;20471;-50
2021/11/18 12:31:24;;;;;;;2.92;1.58;;;17.80;69.20;;;;;;10560162;28;20045;-48
2021/11/18 12:36:37;;;;;;;3.92;1.90;;;17.80;69.40;;;;;;10576610;28;20047;-49
2021/11/18 12:41:42;;;;;;;4.03;1.95;;;17.80;69.50;;;;;;10577854;28;20066;-50
2021/11/18 12:47:13;;;;;;;4.18;1.80;;;17.80;69.50;;;;;;10578015;28;20024;-51
2021/11/18 12:52:24;;;;;;;3.67;1.80;;;17.80;69.80;;;;;;10577319;28;20434;-47
2021/11/18 12:57:39;;;;;;;3.83;2.10;;;17.70;69.80;;;;;;10559116;28;20023;-47
2021/11/18 13:02:41;;;;;;;5.38;2.33;;;17.70;69.80;;;;;;10543091;28;20057;-47
2021/11/18 13:08:06;;;;;;;3.50;2.15;;;17.70;69.80;;;;;;10578629;28;20062;-50
2021/11/18 13:13:26;;;;;;;3.67;1.80;;;17.60;69.70;;;;;;10585729;28;20059;-47
2021/11/18 13:18:26;;;;;;;3.30;1.80;;;17.60;69.90;;;;;;10568313;28;20023;-48
2021/11/18 13:23:40;;;;;;;3.03;1.73;;;17.50;71.50;;;;;;10585222;28;20103;-48
2021/11/18 13:29:11;;;;;;;3.50;1.70;;;17.50;71.00;;;;;;10584923;28;20134;-49
2021/11/18 13:34:55;;;;;;;3.17;1.67;;;17.60;70.80;;;;;;10584969;28;20035;-49
2021/11/18 13:40:11;;;;;;;3.13;1.52;;;17.70;70.20;;;;;;10577696;28;20039;-50
2021/11/18 13:45:33;;;;;;;3.38;1.90;;;17.80;69.70;;;;;;10584960;28;20108;-49
2021/11/18 13:50:49;;;;;;;2.95;1.65;;;18.10;68.80;;;;;;10584418;28;20039;-47
2021/11/18 13:56:02;;;;;;;2.75;1.35;;;18.20;68.20;;;;;;10583965;28;20027;-49
2021/11/18 14:01:13;;;;;;;3.22;1.60;;;18.30;67.90;;;;;;10565997;28;20051;-50
2021/11/18 14:06:25;;;;;;;2.97;1.38;;;18.40;67.60;;;;;;10565798;28;20517;-50
2021/11/18 14:11:45;;;;;;;3.38;2.13;;;18.40;67.60;;;;;;10565901;28;20031;-49
2021/11/18 14:16:46;;;;;;;2.55;1.45;;;18.30;67.60;;;;;;10566990;28;20032;-50
2021/11/18 14:22:02;;;;;;;2.45;1.33;;;18.30;67.80;;;;;;10556849;28;20101;-51
2021/11/18 14:27:14;;;;;;;2.53;1.58;;;18.40;67.50;;;;;;10566101;28;20399;-51
2021/11/18 14:32:59;;;;;;;2.25;1.50;;;18.40;67.20;;;;;;10564376;28;20039;-49
2021/11/18 14:38:05;;;;;;;2.78;1.75;;;18.40;67.20;;;;;;10582387;28;20024;-51
2021/11/18 14:43:25;;;;;;;2.75;0.95;;;18.50;66.90;;;;;;10582374;28;20043;-50
2021/11/18 14:48:37;;;;;;;4.07;1.75;;;18.50;67.00;;;;;;10556158;28;20020;-51
2021/11/18 14:54:02;;;;;;;3.35;1.40;;;18.40;67.10;;;;;;10577384;28;20031;-52
2021/11/18 14:59:08;;;;;;;2.95;1.23;;;18.40;67.00;;;;;;10581572;28;20070;-52
2021/11/18 15:04:33;;;;;;;2.45;1.15;;;18.40;67.00;;;;;;10581394;28;20607;-51
2021/11/18 15:09:38;;;;;;;2.30;0.93;;;18.40;67.20;;;;;;10563058;28;20050;-50
2021/11/18 15:14:40;;;;;;;2.95;1.38;;;18.40;67.00;;;;;;10562639;28;20395;-53
2021/11/18 15:19:50;;;;;;;2.25;1.08;;;18.40;67.00;;;;;;10580495;28;20101;-51
2021/11/18 15:24:59;;;;;;;2.83;1.20;;;18.40;67.00;;;;;;10555771;28;20054;-52
2021/11/18 15:30:00;;;;;;;3.27;1.43;;;18.50;66.90;;;;;;10582066;28;20044;-50
2021/11/18 15:35:07;;;;;;;2.78;1.20;;;18.40;67.00;;;;;;10580464;28;20027;-50
2021/11/18 15:40:10;;;;;;;3.13;1.45;;;18.50;66.90;;;;;;10581553;28;20027;-49
2021/11/18 15:45:19;;;;;;;3.25;1.48;;;18.50;66.60;;;;;;10562449;28;20035;-53
2021/11/18 15:50:25;;;;;;;2.78;1.58;;;18.60;66.30;;;;;;10566508;28;20383;-52
2021/11/18 15:55:26;;;;;;;1.67;1.20;;;18.60;66.40;;;;;;10562571;28;20035;-49
2021/11/18 16:00:31;;;;;;;2.17;1.10;;;18.50;66.40;;;;;;10580645;28;20121;-51
2021/11/18 16:05:33;;;;;;;1.80;1.33;;;18.50;66.70;;;;;;10579980;28;20038;-49
2021/11/18 16:10:51;;;;;;;2.63;1.55;;;18.50;66.60;;;;;;10560541;28;20076;-53
2021/11/18 16:15:53;;;;;;;3.05;1.15;;;18.50;66.60;;;;;;10578631;28;20024;-52
2021/11/18 16:20:58;;;;;;;2.15;1.20;;;18.40;66.70;;;;;;10560170;28;20395;-49
2021/11/18 16:25:59;;;;;;;2.15;1.27;;;18.50;66.50;;;;;;10578192;28;20031;-53
2021/11/18 16:31:00;;;;;;;4.55;1.42;;;18.50;66.50;;;;;;10524125;28;20466;-53
2021/11/18 16:36:03;;;;;;;2.42;1.23;;;18.30;66.90;;;;;;10576563;28;20051;-49
2021/11/18 16:41:14;;;;;;;2.25;1.33;;;18.40;66.60;;;;;;10564904;28;20560;-49
2021/11/18 16:46:16;;;;;;;3.28;1.30;;;18.40;66.40;;;;;;10559669;28;20039;-49
2021/11/18 16:51:46;;;;;;;2.55;1.20;;;18.50;66.50;;;;;;10546314;28;20032;-50
2021/11/18 16:56:51;;;;;;;2.85;1.35;;;18.50;66.30;;;;;;10562889;28;20032;-53
2021/11/18 17:02:04;;;;;;;6.07;1.67;;;18.40;66.30;;;;;;10549605;28;20032;-51
2021/11/18 17:07:06;;;;;;;5.68;1.80;;;18.40;66.50;;;;;;10543410;28;20027;-51
2021/11/18 17:12:10;;;;;;;6.45;2.92;;;18.50;66.00;;;;;;10532877;28;20024;-49
2021/11/18 17:17:14;;;;;;;9.57;3.55;;;18.60;65.70;;;;;;10540140;28;20088;-48
2021/11/18 17:22:25;;;;;;;9.25;2.90;;;18.60;67.10;;;;;;10570076;28;20499;-51
2021/11/18 17:27:29;;;;;;;5.90;2.00;;;18.70;67.50;;;;;;10558913;28;20062;-48
2021/11/18 17:32:30;;;;;;;10.25;3.00;;;18.80;67.00;;;;;;10577126;28;20089;-49
2021/11/18 17:37:32;;;;;;;8.90;2.75;;;18.80;66.70;;;;;;10558740;28;20020;-48
2021/11/18 17:42:33;;;;;;;10.75;2.70;;;18.70;66.80;;;;;;10558658;28;20039;-48
2021/11/18 17:47:35;;;;;;;8.30;2.30;;;18.60;67.10;;;;;;10575141;28;20405;-48
2021/11/18 17:52:38;;;;;;;7.55;2.85;;;18.60;67.30;;;;;;10565762;28;20024;-48
2021/11/18 17:57:40;;;;;;;9.25;2.60;;;18.50;67.80;;;;;;10581824;28;20035;-47
2021/11/18 18:02:41;;;;;;;7.75;2.80;;;18.50;67.50;;;;;;10584592;28;20035;-48
2021/11/18 18:07:42;;;;;;;6.55;2.20;;;18.50;67.50;;;;;;10583721;28;20028;-48
2021/11/18 18:12:43;;;;;;;5.93;2.00;;;18.60;67.20;;;;;;10583329;28;20036;-48
2021/11/18 18:17:45;;;;;;;9.20;3.03;;;18.60;67.10;;;;;;10564581;28;20106;-47
2021/11/18 18:22:45;;;;;;;10.20;2.30;;;18.50;67.50;;;;;;10564121;28;20695;-49
2021/11/18 18:27:46;;;;;;;12.60;2.47;;;18.60;67.60;;;;;;10562399;28;20051;-52
2021/11/18 18:32:48;;;;;;;8.45;2.47;;;18.70;67.30;;;;;;10580103;28;20455;-50
2021/11/18 18:37:50;;;;;;;9.25;2.45;;;18.70;66.90;;;;;;10580785;28;20562;-48
2021/11/18 18:42:51;;;;;;;8.13;2.08;;;18.80;67.00;;;;;;10580921;28;20059;-49
2021/11/18 18:47:54;;;;;;;7.55;2.85;;;18.70;67.20;;;;;;10581441;28;20027;-51
2021/11/18 18:52:55;;;;;;;7.38;2.03;;;18.50;67.40;;;;;;10578239;28;20032;-50
2021/11/18 18:57:57;;;;;;;4.65;2.35;;;18.50;67.70;;;;;;10559912;28;20368;-48
2021/11/18 19:02:58;;;;;;;3.72;1.75;;;18.40;67.80;;;;;;10577972;28;20020;-51
2021/11/18 19:07:58;;;;;;;4.15;1.90;;;18.30;68.00;;;;;;10580732;28;20115;-47
2021/11/18 19:12:59;;;;;;;6.07;1.83;;;18.30;67.90;;;;;;10580950;28;20492;-53
2021/11/18 19:18:02;;;;;;;5.22;2.00;;;18.30;68.00;;;;;;10581029;28;20584;-53
2021/11/18 19:23:05;;;;;;;5.60;1.80;;;18.30;68.00;;;;;;10562303;28;20028;-51
2021/11/18 19:33:24;;;;;;;4.18;1.80;;;18.40;67.70;;;;;;10562575;28;20044;-51
2021/11/18 19:38:36;;;;;;;5.45;1.60;;;18.40;67.80;;;;;;10561728;28;20024;-48
2021/11/18 19:43:39;;;;;;;3.40;1.27;;;18.40;67.80;;;;;;10565949;28;20104;-51
2021/11/18 19:48:40;;;;;;;7.32;1.52;;;18.40;67.70;;;;;;10550005;28;20020;-53
2021/11/18 19:53:41;;;;;;;6.43;2.08;;;18.40;67.70;;;;;;10565706;28;20560;-50
2021/11/18 19:58:43;;;;;;;7.00;2.08;;;18.50;67.80;;;;;;10578313;28;20116;-52
2021/11/18 20:03:54;;;;;;;4.65;1.70;;;18.50;67.80;;;;;;10578862;28;20490;-49
2021/11/18 20:08:55;;;;;;;3.80;2.10;;;18.40;68.10;;;;;;10578379;28;20125;-52
2021/11/18 20:13:56;;;;;;;8.63;2.10;;;18.30;68.60;;;;;;10559869;28;20034;-52
2021/11/18 20:18:58;;;;;;;7.10;1.90;;;18.20;68.60;;;;;;10557999;28;20028;-50
2021/11/18 20:23:59;;;;;;;8.20;2.60;;;18.20;68.80;;;;;;10559720;28;20164;-48
2021/11/18 20:29:01;;;;;;;8.48;1.75;;;18.10;69.10;;;;;;10561401;28;20097;-50
2021/11/18 20:34:07;;;;;;;6.10;2.10;;;18.00;69.20;;;;;;10579859;28;20035;-50
2021/11/18 20:39:10;;;;;;;8.05;2.25;;;17.90;69.20;;;;;;10559501;28;20027;-49
2021/11/18 20:44:17;;;;;;;5.22;1.70;;;17.90;69.40;;;;;;10573092;28;20032;-47
2021/11/18 20:49:20;;;;;;;9.30;2.67;;;17.80;69.50;;;;;;10555627;28;20059;-50
2021/11/18 20:54:23;;;;;;;6.93;2.00;;;17.80;69.60;;;;;;10575492;28;20043;-51
2021/11/18 20:59:24;;;;;;;6.20;2.17;;;17.70;69.60;;;;;;10577281;28;20107;-51
2021/11/18 21:04:25;;;;;;;4.57;1.80;;;17.70;69.80;;;;;;10558090;28;20483;-48
2021/11/18 21:09:27;;;;;;;5.00;2.95;;;17.60;69.70;;;;;;10573991;28;20156;-50
2021/11/18 21:14:28;;;;;;;4.03;1.80;;;17.60;69.70;;;;;;10538668;28;20604;-50
2021/11/18 21:19:29;;;;;;;4.15;1.40;;;17.60;69.70;;;;;;10556820;28;20028;-49
2021/11/18 21:24:31;;;;;;;5.38;1.58;;;17.60;69.70;;;;;;10552761;28;20028;-48
2021/11/18 21:29:42;;;;;;;3.70;1.60;;;17.50;69.80;;;;;;10559619;28;20048;-49
2021/11/18 21:34:46;;;;;;;5.38;1.77;;;17.50;69.90;;;;;;10568129;28;20534;-47
2021/11/18 21:39:56;;;;;;;4.05;1.20;;;17.50;70.00;;;;;;10584917;28;20055;-49
2021/11/18 21:45:00;;;;;;;4.78;1.30;;;17.50;70.00;;;;;;10566750;28;20079;-51
2021/11/18 21:50:16;;;;;;;3.00;1.40;;;17.40;70.00;;;;;;10570767;28;20024;-49
2021/11/18 21:55:28;;;;;;;3.08;1.55;;;17.40;70.10;;;;;;10584704;28;20092;-50
2021/11/18 22:00:38;;;;;;;5.38;1.65;;;17.40;70.10;;;;;;10584048;28;20050;-49
2021/11/18 22:05:43;;;;;;;2.53;1.40;;;17.40;70.20;;;;;;10550264;28;20023;-48
2021/11/18 22:10:51;;;;;;;2.78;1.33;;;17.40;69.90;;;;;;10583575;28;20035;-51
2021/11/18 22:15:53;;;;;;;5.70;1.35;;;17.40;69.70;;;;;;10583332;28;20023;-53
2021/11/18 22:21:18;;;;;;;4.45;1.35;;;17.40;70.30;;;;;;10581380;28;20107;-48
2021/11/18 22:26:25;;;;;;;4.25;1.85;;;17.50;69.70;;;;;;10582208;28;20028;-48
2021/11/18 22:31:30;;;;;;;4.80;1.70;;;17.40;69.70;;;;;;10582656;28;20069;-48
2021/11/18 22:36:37;;;;;;;3.42;1.40;;;17.40;69.60;;;;;;10582627;28;20024;-48
2021/11/18 22:41:46;;;;;;;3.65;1.40;;;17.50;69.50;;;;;;10564038;28;20046;-47
2021/11/18 22:46:48;;;;;;;6.78;2.58;;;17.50;69.40;;;;;;10582190;28;20106;-47
2021/11/18 22:51:50;;;;;;;5.10;1.85;;;17.50;69.50;;;;;;10568272;28;20437;-46
2021/11/18 22:56:51;;;;;;;1.75;1.10;;;17.50;69.20;;;;;;10563457;28;20115;-46
2021/11/18 23:01:58;;;;;;;3.10;1.20;;;17.60;69.00;;;;;;10581490;28;20058;-47
2021/11/18 23:07:02;;;;;;;2.83;1.25;;;17.60;69.00;;;;;;10563800;28;20054;-47
2021/11/18 23:12:04;;;;;;;2.97;1.33;;;17.60;69.10;;;;;;10563125;28;20024;-48
2021/11/18 23:17:07;;;;;;;5.03;1.55;;;17.70;68.80;;;;;;10580901;28;20032;-50
2021/11/18 23:22:29;;;;;;;3.70;1.10;;;17.70;68.60;;;;;;10580722;28;20035;-49
2021/11/18 23:27:31;;;;;;;2.75;1.30;;;17.70;68.60;;;;;;10563181;28;20065;-50
2021/11/18 23:32:32;;;;;;;6.10;1.40;;;17.70;68.80;;;;;;10580159;28;20040;-51
2021/11/18 23:37:33;;;;;;;3.03;1.15;;;17.60;68.80;;;;;;10580092;28;20032;-50
2021/11/18 23:42:34;;;;;;;2.95;1.20;;;17.60;69.00;;;;;;10561859;28;20028;-47
2021/11/18 23:47:36;;;;;;;4.43;1.50;;;17.60;69.00;;;;;;10561461;28;20387;-49
2021/11/18 23:52:37;;;;;;;3.08;1.27;;;17.60;68.80;;;;;;10560640;28;20043;-52
2021/11/18 23:57:39;;;;;;;1.52;0.75;;;17.70;68.90;;;;;;10561479;28;20518;-48
